Time;durP1;ratioP1;P1;durP2;ratioP2;P2;SDS_P1;SDS_P2;PMS_P1;PMS_P2;Temp;Humidity;BMP_temperature;BMP_pressure;BME280_temperature;BME280_humidity;BME280_pressure;Samples;Min_cycle;Max_cycle;Signal;HPM_P1;HPM_P2
2022/10/13 00:01:25;;;;;;;19.88;10.15;;;11.20;99.90;;;;;;5058192;28;20119;-78
2022/10/13 00:03:51;;;;;;;23.05;10.25;;;11.20;99.90;;;;;;5055361;28;20033;-78
2022/10/13 00:06:20;;;;;;;18.98;9.23;;;11.20;99.90;;;;;;5052077;28;20482;-78
2022/10/13 00:08:46;;;;;;;21.42;10.88;;;11.10;99.90;;;;;;5051560;28;20013;-78
2022/10/13 00:11:24;;;;;;;19.35;9.82;;;11.10;99.90;;;;;;5031819;28;20082;-78
2022/10/13 00:13:53;;;;;;;17.58;10.60;;;11.10;99.90;;;;;;5048365;28;20021;-78
2022/10/13 00:16:23;;;;;;;22.73;10.65;;;11.00;99.90;;;;;;5043191;28;20165;-78
2022/10/13 00:18:49;;;;;;;20.85;9.85;;;11.00;99.90;;;;;;5043367;28;20032;-78
2022/10/13 00:21:18;;;;;;;18.92;10.48;;;11.00;99.90;;;;;;5039569;28;20110;-79
2022/10/13 00:23:46;;;;;;;15.23;9.23;;;10.90;99.90;;;;;;5054885;28;20044;-79
2022/10/13 00:26:14;;;;;;;21.17;10.50;;;10.90;99.90;;;;;;5053943;28;20032;-79
2022/10/13 00:28:40;;;;;;;22.60;11.35;;;10.90;99.90;;;;;;5071272;28;20071;-79
2022/10/13 00:31:18;;;;;;;20.58;11.43;;;10.80;99.90;;;;;;5071776;28;20025;-80
2022/10/13 00:33:51;;;;;;;19.50;9.88;;;10.80;99.90;;;;;;5048407;28;20505;-80
2022/10/13 00:36:18;;;;;;;23.30;10.55;;;10.80;99.90;;;;;;5053330;28;20494;-79
2022/10/13 00:38:44;;;;;;;21.80;9.52;;;10.70;99.90;;;;;;5046502;28;20025;-83
2022/10/13 00:41:20;;;;;;;21.15;9.10;;;10.70;99.90;;;;;;5046665;28;20041;-80
2022/10/13 00:43:53;;;;;;;15.50;9.00;;;10.70;99.90;;;;;;5069573;28;20120;-80
2022/10/13 00:46:30;;;;;;;19.85;9.65;;;10.70;99.90;;;;;;5047718;28;20036;-79
2022/10/13 00:49:08;;;;;;;17.30;10.07;;;10.70;99.90;;;;;;5048476;28;20493;-80
2022/10/13 00:51:45;;;;;;;18.75;9.40;;;10.60;99.90;;;;;;5046846;28;20674;-79
2022/10/13 00:54:14;;;;;;;24.15;10.20;;;10.60;99.90;;;;;;5068299;28;20025;-79
2022/10/13 00:56:41;;;;;;;23.88;9.88;;;10.70;99.90;;;;;;5047585;28;20034;-79
2022/10/13 00:59:21;;;;;;;16.10;8.98;;;10.60;99.90;;;;;;5052924;28;20033;-79
2022/10/13 01:01:51;;;;;;;16.52;10.25;;;10.60;99.90;;;;;;5068186;28;20033;-80
2022/10/13 01:04:17;;;;;;;20.58;10.23;;;10.60;99.90;;;;;;5051629;28;20077;-78
2022/10/13 01:06:44;;;;;;;22.50;10.10;;;10.60;99.90;;;;;;5061646;28;20033;-80
2022/10/13 01:09:09;;;;;;;16.25;8.90;;;10.60;99.90;;;;;;5048223;28;20017;-78
2022/10/13 01:11:57;;;;;;;22.80;10.15;;;10.50;99.90;;;;;;5055055;28;20074;-79
2022/10/13 01:14:32;;;;;;;20.60;11.05;;;10.60;99.90;;;;;;5063661;28;20098;-77
2022/10/13 01:17:10;;;;;;;20.55;10.45;;;10.50;99.90;;;;;;5044946;28;20021;-78
2022/10/13 01:20:17;;;;;;;29.67;9.95;;;10.60;99.90;;;;;;5046400;28;20025;-78
2022/10/13 01:23:01;;;;;;;21.55;10.63;;;10.60;99.90;;;;;;5000764;28;20549;-77
2022/10/13 01:26:24;;;;;;;23.65;10.80;;;10.60;99.90;;;;;;5037020;28;20179;-77
2022/10/13 01:29:07;;;;;;;17.75;9.38;;;10.60;99.90;;;;;;4983369;28;20109;-77
2022/10/13 01:32:14;;;;;;;19.27;9.55;;;10.60;99.90;;;;;;4985162;28;20045;-76
2022/10/13 01:35:09;;;;;;;16.63;9.32;;;10.60;99.90;;;;;;5041100;28;20595;-77
2022/10/13 01:38:26;;;;;;;17.45;9.07;;;10.60;99.90;;;;;;5043657;28;20025;-77
2022/10/13 01:40:54;;;;;;;19.55;9.88;;;10.60;99.90;;;;;;5017940;28;20401;-77
2022/10/13 01:43:26;;;;;;;22.70;10.15;;;10.60;99.90;;;;;;5039804;28;20033;-77
2022/10/13 01:46:15;;;;;;;22.35;9.80;;;10.60;99.90;;;;;;5046996;28;20075;-77
2022/10/13 01:48:45;;;;;;;17.88;9.60;;;10.60;99.90;;;;;;5061140;28;20040;-76
2022/10/13 01:51:20;;;;;;;18.52;9.68;;;10.60;99.90;;;;;;5046367;28;20021;-76
2022/10/13 01:53:47;;;;;;;27.40;9.88;;;10.70;99.90;;;;;;5045842;28;20014;-76
2022/10/13 01:56:13;;;;;;;19.35;10.45;;;10.70;99.90;;;;;;5040636;28;20029;-75
2022/10/13 01:58:39;;;;;;;17.25;10.20;;;10.80;99.90;;;;;;5044876;28;20033;-75
2022/10/13 02:01:26;;;;;;;18.67;9.55;;;10.80;99.90;;;;;;5043606;28;20021;-76
2022/10/13 02:04:19;;;;;;;17.55;9.80;;;10.80;99.90;;;;;;5059795;28;20107;-76
2022/10/13 02:07:12;;;;;;;17.02;9.77;;;10.90;99.90;;;;;;5044778;28;20025;-76
2022/10/13 02:10:06;;;;;;;21.77;11.05;;;10.90;99.90;;;;;;5037560;28;20037;-74
2022/10/13 02:12:44;;;;;;;21.38;9.80;;;11.00;99.90;;;;;;5047395;28;20456;-76
2022/10/13 02:15:18;;;;;;;26.02;10.73;;;11.00;99.90;;;;;;5040613;28;20028;-76
2022/10/13 02:17:43;;;;;;;19.52;9.93;;;11.10;99.90;;;;;;5043904;28;20123;-76
2022/10/13 02:20:15;;;;;;;21.15;10.52;;;11.10;99.90;;;;;;5042874;28;20105;-75
2022/10/13 02:22:53;;;;;;;18.08;9.77;;;11.10;99.90;;;;;;5047284;28;20033;-77
2022/10/13 02:25:19;;;;;;;16.58;9.38;;;11.10;99.90;;;;;;5060452;28;20040;-74
2022/10/13 02:27:45;;;;;;;17.70;9.75;;;11.10;99.90;;;;;;5046766;28;20017;-76
2022/10/13 02:30:26;;;;;;;16.98;8.77;;;11.20;99.90;;;;;;5046086;28;20024;-76
2022/10/13 02:33:01;;;;;;;19.08;9.93;;;11.20;99.90;;;;;;5039276;28;20053;-75
2022/10/13 02:35:28;;;;;;;21.35;9.80;;;11.20;99.90;;;;;;5047169;28;20526;-75
2022/10/13 02:37:54;;;;;;;19.20;9.40;;;11.30;99.90;;;;;;5039821;28;20037;-75
2022/10/13 02:40:23;;;;;;;17.52;10.25;;;11.30;99.90;;;;;;5046473;28;20033;-75
2022/10/13 02:42:52;;;;;;;20.27;9.50;;;11.30;99.90;;;;;;5043542;28;20057;-75
2022/10/13 02:45:18;;;;;;;23.73;9.32;;;11.30;99.90;;;;;;5041309;28;20056;-75
2022/10/13 02:47:46;;;;;;;16.25;9.50;;;11.40;99.90;;;;;;5056359;28;20505;-75
2022/10/13 02:50:12;;;;;;;20.05;8.98;;;11.30;99.90;;;;;;5042011;28;20021;-75
2022/10/13 02:52:41;;;;;;;16.58;8.40;;;11.40;99.90;;;;;;5045763;28;20025;-74
2022/10/13 02:55:12;;;;;;;17.85;9.07;;;11.40;99.90;;;;;;5045208;28;20025;-75
2022/10/13 02:57:41;;;;;;;19.20;9.43;;;11.40;99.90;;;;;;5046856;28;20053;-76
2022/10/13 03:00:07;;;;;;;18.45;9.30;;;11.40;99.90;;;;;;5039769;28;20027;-76
2022/10/13 03:02:36;;;;;;;18.23;8.88;;;11.50;99.90;;;;;;5042237;28;20018;-76
2022/10/13 03:05:02;;;;;;;18.60;8.93;;;11.50;99.90;;;;;;5045330;28;20033;-75
2022/10/13 03:07:28;;;;;;;16.15;8.55;;;11.50;99.90;;;;;;5044227;28;20033;-72
2022/10/13 03:09:57;;;;;;;16.60;9.07;;;11.50;99.90;;;;;;5047275;28;20076;-74
2022/10/13 03:12:22;;;;;;;16.27;8.70;;;11.50;99.90;;;;;;5048196;28;20065;-73
2022/10/13 03:14:57;;;;;;;18.95;9.85;;;11.60;99.90;;;;;;5060499;28;20512;-72
2022/10/13 03:17:23;;;;;;;17.73;10.23;;;11.60;99.90;;;;;;5045430;28;20025;-75
2022/10/13 03:19:48;;;;;;;16.55;9.35;;;11.60;99.90;;;;;;5049225;28;20035;-75
2022/10/13 03:22:17;;;;;;;18.73;8.88;;;11.60;99.90;;;;;;5048432;28;20059;-73
2022/10/13 03:24:48;;;;;;;17.67;8.73;;;11.60;99.90;;;;;;5043773;28;20421;-73
2022/10/13 03:27:14;;;;;;;15.68;9.48;;;11.60;99.90;;;;;;5047965;28;20071;-74
2022/10/13 03:29:40;;;;;;;16.73;9.18;;;11.70;99.90;;;;;;5048237;28;20913;-75
2022/10/13 03:32:08;;;;;;;17.25;9.07;;;11.70;99.90;;;;;;5042481;28;20389;-75
2022/10/13 03:34:34;;;;;;;17.70;9.50;;;11.70;99.90;;;;;;5048164;28;20025;-75
2022/10/13 03:37:03;;;;;;;18.83;9.07;;;11.70;99.90;;;;;;5048591;28;20087;-75
2022/10/13 03:39:28;;;;;;;18.50;9.68;;;11.80;99.90;;;;;;5046919;28;20930;-75
2022/10/13 03:41:54;;;;;;;16.63;9.43;;;11.70;99.90;;;;;;5044814;28;20036;-73
2022/10/13 03:44:20;;;;;;;18.50;9.25;;;11.80;99.90;;;;;;5043286;28;20039;-75
2022/10/13 03:46:54;;;;;;;17.65;8.77;;;11.80;99.90;;;;;;5051586;28;20025;-75
2022/10/13 03:49:20;;;;;;;17.85;9.45;;;11.80;99.90;;;;;;5047228;28;20116;-75
2022/10/13 03:51:46;;;;;;;14.68;8.10;;;11.80;99.90;;;;;;5046819;28;20210;-72
2022/10/13 03:54:12;;;;;;;17.80;9.75;;;11.80;99.90;;;;;;5048798;28;20373;-74
2022/10/13 03:56:38;;;;;;;15.35;8.55;;;11.80;99.90;;;;;;5046739;28;20117;-73
2022/10/13 03:59:09;;;;;;;14.38;7.85;;;11.80;99.90;;;;;;5047042;28;20035;-73
2022/10/13 04:01:34;;;;;;;14.52;8.10;;;11.80;99.90;;;;;;5046958;28;20028;-73
2022/10/13 04:04:03;;;;;;;12.70;7.80;;;11.80;99.90;;;;;;5041704;28;20022;-75
2022/10/13 04:06:29;;;;;;;14.85;8.60;;;11.70;99.90;;;;;;5042297;28;20029;-75
2022/10/13 04:08:56;;;;;;;20.13;9.85;;;11.70;99.90;;;;;;5043914;28;20013;-76
2022/10/13 04:11:22;;;;;;;15.15;8.40;;;11.70;99.90;;;;;;5045434;28;20418;-75
2022/10/13 04:13:48;;;;;;;18.20;8.23;;;11.70;99.90;;;;;;5042781;28;20083;-73
2022/10/13 04:16:18;;;;;;;13.30;8.63;;;11.60;99.90;;;;;;5043385;28;20041;-76
2022/10/13 04:18:44;;;;;;;16.55;8.55;;;11.60;99.90;;;;;;5045741;28;20090;-76
2022/10/13 04:21:16;;;;;;;17.92;7.80;;;11.60;99.90;;;;;;5048594;28;20500;-76
2022/10/13 04:23:45;;;;;;;20.67;10.55;;;11.50;99.90;;;;;;5043624;28;20031;-76
2022/10/13 04:26:20;;;;;;;18.38;9.30;;;11.50;99.90;;;;;;5048191;28;20367;-76
2022/10/13 04:28:55;;;;;;;11.90;7.72;;;11.50;99.90;;;;;;5045505;28;20032;-76
2022/10/13 04:31:21;;;;;;;15.07;8.23;;;11.50;99.90;;;;;;5044934;28;20029;-76
2022/10/13 04:33:47;;;;;;;15.65;8.73;;;11.40;99.90;;;;;;5047681;28;20034;-75
2022/10/13 04:36:17;;;;;;;15.77;8.52;;;11.40;99.90;;;;;;5045414;28;20032;-75
2022/10/13 04:38:43;;;;;;;17.30;8.23;;;11.40;99.90;;;;;;5045575;28;20024;-76
2022/10/13 04:41:10;;;;;;;19.05;8.30;;;11.40;99.90;;;;;;5043398;28;20028;-76
2022/10/13 04:43:42;;;;;;;16.88;9.27;;;11.30;99.90;;;;;;5043407;28;20412;-75
2022/10/13 04:46:20;;;;;;;14.45;8.32;;;11.30;99.90;;;;;;5046100;28;20386;-75
2022/10/13 04:48:53;;;;;;;15.15;7.97;;;11.30;99.90;;;;;;5049354;28;20060;-76
2022/10/13 04:51:22;;;;;;;16.38;8.43;;;11.30;99.90;;;;;;5046891;28;20460;-76
2022/10/13 04:53:58;;;;;;;14.00;8.05;;;11.20;99.90;;;;;;5046746;28;20021;-75
2022/10/13 04:56:24;;;;;;;19.10;8.82;;;11.30;99.90;;;;;;5042267;28;20888;-75
2022/10/13 04:58:53;;;;;;;19.70;9.65;;;11.20;99.90;;;;;;5046828;28;20096;-76
2022/10/13 05:01:21;;;;;;;16.17;9.07;;;11.20;99.90;;;;;;5046805;28;20029;-75
2022/10/13 05:03:57;;;;;;;13.52;8.95;;;11.20;99.90;;;;;;5045472;28;20038;-75
2022/10/13 05:06:28;;;;;;;18.92;9.13;;;11.10;99.90;;;;;;5044273;28;20067;-74
2022/10/13 05:08:58;;;;;;;15.57;8.23;;;11.10;99.90;;;;;;5050656;28;20552;-69
2022/10/13 05:11:27;;;;;;;13.20;8.30;;;11.10;99.90;;;;;;5043817;28;20218;-69
2022/10/13 05:13:54;;;;;;;15.43;8.27;;;11.10;99.90;;;;;;5062879;28;20547;-69
2022/10/13 05:16:23;;;;;;;17.95;8.35;;;11.10;99.90;;;;;;5045349;28;20029;-69
2022/10/13 05:18:51;;;;;;;16.25;8.57;;;11.10;99.90;;;;;;5047175;28;20070;-69
2022/10/13 05:21:27;;;;;;;19.05;9.02;;;11.10;99.90;;;;;;5047098;28;20021;-69
2022/10/13 05:23:54;;;;;;;15.02;7.80;;;11.10;99.90;;;;;;5047833;28;20025;-67
2022/10/13 05:26:30;;;;;;;12.43;7.57;;;11.10;99.90;;;;;;5060379;28;20078;-74
2022/10/13 05:28:57;;;;;;;14.10;8.73;;;11.00;99.90;;;;;;5045057;28;20021;-75
2022/10/13 05:31:28;;;;;;;13.57;8.32;;;11.00;99.90;;;;;;5040637;28;20359;-74
2022/10/13 05:33:54;;;;;;;14.68;7.95;;;11.00;99.90;;;;;;5047507;28;20033;-74
2022/10/13 05:36:22;;;;;;;16.30;8.48;;;10.90;99.90;;;;;;5046949;28;20028;-76
2022/10/13 05:38:53;;;;;;;18.55;8.48;;;11.00;99.90;;;;;;5060517;28;20037;-76
2022/10/13 05:41:24;;;;;;;16.02;8.10;;;10.90;99.90;;;;;;5058401;28;20070;-76
2022/10/13 05:43:53;;;;;;;15.88;8.18;;;10.90;99.90;;;;;;5045429;28;20442;-75
2022/10/13 05:46:18;;;;;;;13.25;8.18;;;10.90;99.90;;;;;;5058228;28;20092;-75
2022/10/13 05:48:44;;;;;;;18.45;8.60;;;10.80;99.90;;;;;;5043124;28;20040;-76
2022/10/13 05:51:16;;;;;;;18.10;8.77;;;10.90;99.90;;;;;;5038776;28;20385;-76
2022/10/13 05:53:49;;;;;;;15.32;9.20;;;10.80;99.90;;;;;;5034635;28;20029;-74
2022/10/13 05:56:29;;;;;;;18.03;8.10;;;10.80;99.90;;;;;;5040974;28;20025;-76
2022/10/13 05:59:00;;;;;;;21.92;9.27;;;10.80;99.90;;;;;;5040301;28;20686;-73
2022/10/13 06:01:29;;;;;;;16.70;8.20;;;10.80;99.90;;;;;;5045519;28;20037;-77
2022/10/13 06:04:00;;;;;;;13.90;8.00;;;10.80;99.90;;;;;;5040956;28;20532;-75
2022/10/13 06:06:29;;;;;;;19.00;8.88;;;10.80;99.90;;;;;;5042885;28;20028;-70
2022/10/13 06:08:58;;;;;;;17.67;8.80;;;10.90;99.90;;;;;;5042433;28;20028;-75
2022/10/13 06:11:23;;;;;;;19.98;9.32;;;11.00;99.90;;;;;;5040036;28;20529;-76
2022/10/13 06:13:51;;;;;;;15.60;8.60;;;11.00;99.90;;;;;;5039224;28;20028;-75
2022/10/13 06:16:20;;;;;;;21.52;9.55;;;11.00;99.90;;;;;;5058047;28;20227;-76
2022/10/13 06:18:46;;;;;;;16.27;8.95;;;11.00;99.90;;;;;;5039558;28;20112;-76
2022/10/13 06:21:16;;;;;;;16.75;9.75;;;11.10;99.90;;;;;;5038590;28;20040;-76
2022/10/13 06:23:47;;;;;;;18.48;9.48;;;11.10;99.90;;;;;;5040768;28;20053;-77
2022/10/13 06:26:13;;;;;;;15.70;8.52;;;11.20;99.90;;;;;;5042012;28;20155;-77
2022/10/13 06:28:38;;;;;;;18.10;8.93;;;11.20;99.90;;;;;;5042722;28;20108;-77
2022/10/13 06:31:05;;;;;;;19.77;9.65;;;11.30;99.90;;;;;;5043262;28;20117;-77
2022/10/13 06:33:31;;;;;;;22.35;9.50;;;11.30;99.90;;;;;;5058263;28;20113;-77
2022/10/13 06:36:02;;;;;;;14.00;8.70;;;11.40;99.90;;;;;;5046765;28;20040;-78
2022/10/13 06:38:28;;;;;;;17.25;9.90;;;11.40;99.90;;;;;;5053709;28;20022;-78
2022/10/13 06:40:54;;;;;;;15.20;8.43;;;11.50;99.90;;;;;;5040964;28;20056;-78
2022/10/13 06:43:22;;;;;;;15.48;8.82;;;11.50;99.90;;;;;;5048177;28;20029;-77
2022/10/13 06:45:51;;;;;;;13.02;8.32;;;11.60;99.90;;;;;;5043685;28;20033;-77
2022/10/13 06:48:16;;;;;;;14.82;9.63;;;11.60;99.90;;;;;;5041359;28;20035;-76
2022/10/13 06:50:48;;;;;;;16.42;9.05;;;11.60;99.90;;;;;;5044331;28;20041;-78
2022/10/13 06:53:20;;;;;;;13.55;8.23;;;11.70;99.90;;;;;;5045713;28;20033;-77
2022/10/13 06:55:48;;;;;;;16.85;8.43;;;11.70;99.90;;;;;;5048811;28;20032;-77
2022/10/13 06:58:14;;;;;;;15.10;8.68;;;11.80;99.90;;;;;;5050659;28;20024;-77
2022/10/13 07:00:49;;;;;;;20.73;8.77;;;11.80;99.90;;;;;;5047336;28;20032;-77
2022/10/13 07:03:14;;;;;;;16.15;8.68;;;11.80;99.90;;;;;;5047515;28;20052;-79
2022/10/13 07:05:40;;;;;;;12.15;8.10;;;11.90;99.90;;;;;;5049909;28;20055;-75
2022/10/13 07:08:09;;;;;;;13.15;7.32;;;11.90;99.90;;;;;;5065191;28;20021;-76
2022/10/13 07:10:37;;;;;;;36.63;7.80;;;12.00;99.90;;;;;;5046170;28;20021;-76
2022/10/13 07:13:12;;;;;;;15.75;7.68;;;12.10;99.90;;;;;;5050346;28;20024;-78
2022/10/13 07:15:39;;;;;;;13.05;7.10;;;12.20;99.90;;;;;;5050944;28;20044;-76
2022/10/13 07:18:05;;;;;;;13.77;6.88;;;12.30;99.90;;;;;;5049079;28;20170;-77
2022/10/13 07:20:31;;;;;;;17.48;7.93;;;12.30;99.90;;;;;;5050395;28;20033;-77
2022/10/13 07:22:57;;;;;;;14.85;7.15;;;12.40;99.90;;;;;;5059150;28;20485;-77
2022/10/13 07:25:22;;;;;;;14.27;7.32;;;12.40;99.90;;;;;;5050572;28;20033;-77
2022/10/13 07:27:48;;;;;;;17.33;7.53;;;12.50;99.90;;;;;;5048104;28;20504;-77
2022/10/13 07:30:15;;;;;;;15.30;7.80;;;12.60;99.90;;;;;;5044764;28;20516;-77
2022/10/13 07:32:41;;;;;;;12.63;6.55;;;12.60;99.90;;;;;;5044827;28;20096;-77
2022/10/13 07:35:08;;;;;;;13.88;7.35;;;12.60;99.90;;;;;;5046071;28;20389;-77
2022/10/13 07:37:34;;;;;;;13.93;6.25;;;12.70;99.90;;;;;;5045233;28;20026;-76
2022/10/13 07:40:18;;;;;;;11.68;7.30;;;12.80;99.90;;;;;;5045679;28;20382;-77
2022/10/13 07:42:47;;;;;;;10.43;6.72;;;12.80;99.90;;;;;;5044497;28;20044;-76
2022/10/13 07:45:16;;;;;;;12.30;7.45;;;12.80;99.90;;;;;;5046641;28;20431;-77
2022/10/13 07:47:41;;;;;;;11.88;6.85;;;12.90;99.90;;;;;;5043179;23;20037;-79
2022/10/13 07:50:09;;;;;;;11.13;6.32;;;12.90;99.90;;;;;;5043427;28;22458;-79
2022/10/13 07:52:35;;;;;;;12.77;6.57;;;13.00;99.90;;;;;;5019873;28;20095;-78
2022/10/13 07:55:00;;;;;;;12.05;6.85;;;13.00;99.90;;;;;;5027410;28;20020;-79
2022/10/13 07:57:26;;;;;;;15.40;7.85;;;13.10;99.90;;;;;;5034422;28;20029;-79
2022/10/13 07:59:52;;;;;;;14.60;7.35;;;13.10;99.90;;;;;;5028134;28;20028;-79
2022/10/13 08:02:28;;;;;;;11.43;7.18;;;13.20;99.90;;;;;;5055579;23;20044;-78
2022/10/13 08:04:57;;;;;;;16.63;7.35;;;13.30;99.90;;;;;;5051532;28;20028;-77
2022/10/13 08:07:31;;;;;;;22.58;9.10;;;13.30;99.90;;;;;;5049439;28;20032;-78
2022/10/13 08:09:57;;;;;;;21.95;11.00;;;13.40;99.90;;;;;;5046142;28;20031;-78
2022/10/13 08:12:29;;;;;;;19.80;10.13;;;13.40;99.90;;;;;;5059174;28;20036;-77
2022/10/13 08:14:58;;;;;;;23.63;11.80;;;13.50;99.90;;;;;;5040701;28;20367;-77
2022/10/13 08:17:32;;;;;;;25.30;10.45;;;13.50;99.90;;;;;;5041521;28;20033;-77
2022/10/13 08:19:58;;;;;;;17.77;10.32;;;13.50;99.90;;;;;;5061623;28;20102;-78
2022/10/13 08:22:27;;;;;;;20.88;11.10;;;13.50;99.90;;;;;;5045556;28;20067;-77
2022/10/13 08:24:56;;;;;;;18.67;9.77;;;13.60;99.90;;;;;;5060140;28;20040;-77
2022/10/13 08:27:28;;;;;;;15.05;10.18;;;13.60;99.90;;;;;;5046040;28;20025;-78
2022/10/13 08:30:00;;;;;;;18.60;10.40;;;13.70;99.90;;;;;;5046138;28;20036;-77
2022/10/13 08:32:35;;;;;;;18.35;11.05;;;13.70;99.90;;;;;;5047197;28;20021;-76
2022/10/13 08:35:04;;;;;;;18.13;10.77;;;13.80;99.90;;;;;;5047858;28;20025;-76
2022/10/13 08:37:33;;;;;;;17.48;10.55;;;13.80;99.90;;;;;;5044327;28;20040;-76
2022/10/13 08:39:59;;;;;;;27.45;10.45;;;13.80;99.90;;;;;;5047709;28;20021;-77
2022/10/13 08:42:25;;;;;;;18.17;9.20;;;13.80;99.90;;;;;;5049294;28;20056;-77
2022/10/13 08:45:01;;;;;;;19.70;8.88;;;13.80;99.90;;;;;;5050531;28;20028;-77
2022/10/13 08:47:44;;;;;;;13.98;8.15;;;13.90;99.90;;;;;;5067466;28;20025;-77
2022/10/13 08:50:16;;;;;;;26.33;10.98;;;13.90;99.90;;;;;;5048611;28;20021;-78
2022/10/13 08:52:59;;;;;;;19.42;10.40;;;13.90;99.90;;;;;;5045951;28;20112;-78
2022/10/13 08:55:51;;;;;;;20.73;9.52;;;13.90;99.90;;;;;;5042554;28;20102;-77
2022/10/13 08:58:31;;;;;;;20.38;9.85;;;14.00;99.90;;;;;;5046931;28;20473;-78
2022/10/13 09:00:59;;;;;;;24.17;10.98;;;14.00;99.90;;;;;;5045819;28;20032;-77
2022/10/13 09:03:29;;;;;;;26.23;10.85;;;14.00;99.90;;;;;;5045201;28;20029;-77
2022/10/13 09:06:10;;;;;;;21.02;10.13;;;14.10;99.90;;;;;;5064055;28;20017;-78
2022/10/13 09:08:52;;;;;;;23.83;10.27;;;14.10;99.90;;;;;;5045902;28;20433;-77
2022/10/13 09:11:19;;;;;;;19.20;9.68;;;14.10;99.90;;;;;;5046859;28;20031;-77
2022/10/13 09:13:48;;;;;;;15.70;9.70;;;14.10;99.90;;;;;;5063208;28;20087;-77
2022/10/13 09:16:14;;;;;;;18.25;10.13;;;14.20;99.90;;;;;;5042239;28;20482;-77
2022/10/13 09:18:40;;;;;;;19.13;9.82;;;14.20;99.90;;;;;;5046465;28;20056;-77
2022/10/13 09:21:09;;;;;;;22.85;10.85;;;14.20;99.90;;;;;;5043863;28;20059;-77
2022/10/13 09:23:35;;;;;;;19.02;9.95;;;14.20;99.90;;;;;;5046918;28;20033;-77
2022/10/13 09:26:14;;;;;;;23.15;10.27;;;14.30;99.90;;;;;;5058225;28;20095;-77
2022/10/13 09:28:46;;;;;;;16.48;9.20;;;14.30;99.90;;;;;;5040805;28;20079;-77
2022/10/13 09:31:27;;;;;;;18.58;10.05;;;14.30;99.90;;;;;;5045594;28;20349;-77
2022/10/13 09:34:02;;;;;;;15.55;9.20;;;14.40;99.90;;;;;;5041634;28;20481;-76
2022/10/13 09:36:31;;;;;;;15.18;9.10;;;14.40;99.90;;;;;;5045261;28;20056;-76
2022/10/13 09:39:15;;;;;;;18.15;9.23;;;14.50;99.90;;;;;;5045279;28;20477;-76
2022/10/13 09:42:24;;;;;;;19.15;9.50;;;14.50;99.90;;;;;;5049925;28;20049;-76
2022/10/13 09:45:00;;;;;;;17.65;8.75;;;14.60;99.90;;;;;;5046926;28;20064;-76
2022/10/13 09:47:35;;;;;;;17.00;8.48;;;14.60;99.90;;;;;;5053430;28;20033;-77
2022/10/13 09:50:14;;;;;;;26.90;8.65;;;14.60;99.90;;;;;;5069112;28;20442;-78
2022/10/13 09:52:40;;;;;;;20.17;9.27;;;14.70;99.90;;;;;;5049875;28;20855;-77
2022/10/13 09:55:27;;;;;;;16.40;7.97;;;14.70;99.90;;;;;;5046682;28;20100;-78
2022/10/13 09:57:55;;;;;;;17.85;8.38;;;14.80;99.90;;;;;;5048342;28;20549;-79
2022/10/13 10:00:26;;;;;;;19.88;8.27;;;14.80;99.90;;;;;;5048138;28;20079;-80
2022/10/13 10:03:15;;;;;;;14.20;8.20;;;14.80;99.90;;;;;;5049853;28;20085;-77
2022/10/13 10:05:52;;;;;;;20.08;8.88;;;14.90;99.90;;;;;;5019772;28;20559;-78
2022/10/13 10:08:50;;;;;;;14.80;8.07;;;15.00;99.90;;;;;;5047751;28;20381;-79
2022/10/13 10:11:20;;;;;;;20.73;8.02;;;15.00;99.90;;;;;;5062477;28;20029;-78
2022/10/13 10:13:46;;;;;;;17.17;9.15;;;15.10;99.90;;;;;;5048421;28;20025;-78
2022/10/13 10:16:37;;;;;;;23.60;10.20;;;15.10;99.90;;;;;;5048750;28;20060;-79
2022/10/13 10:19:25;;;;;;;16.48;8.80;;;15.20;99.90;;;;;;5051231;28;20032;-78
2022/10/13 10:22:02;;;;;;;19.67;8.82;;;15.30;99.90;;;;;;5047559;28;20028;-79
2022/10/13 10:24:45;;;;;;;16.98;8.68;;;15.40;99.90;;;;;;5048936;28;20040;-78
2022/10/13 10:27:22;;;;;;;22.27;9.20;;;15.40;99.90;;;;;;5049982;28;20053;-78
2022/10/13 10:29:55;;;;;;;23.13;10.15;;;15.40;99.90;;;;;;5050631;28;20021;-78
2022/10/13 10:32:26;;;;;;;16.63;9.25;;;15.40;99.90;;;;;;5043174;28;20034;-79
2022/10/13 10:34:59;;;;;;;16.45;9.02;;;15.50;99.90;;;;;;5047468;28;20040;-78
2022/10/13 10:37:49;;;;;;;18.17;9.75;;;15.50;99.90;;;;;;5049824;28;20029;-78
2022/10/13 10:40:50;;;;;;;17.98;8.30;;;15.50;99.90;;;;;;5047034;28;20080;-78
2022/10/13 10:43:43;;;;;;;18.75;8.45;;;15.50;99.90;;;;;;5045114;28;20029;-77
2022/10/13 10:46:34;;;;;;;18.33;8.32;;;15.50;99.90;;;;;;5062796;28;20043;-78
2022/10/13 10:49:10;;;;;;;15.30;8.40;;;15.50;99.90;;;;;;5044410;28;20088;-78
2022/10/13 10:51:42;;;;;;;22.55;9.68;;;15.50;99.90;;;;;;5048627;28;20021;-79
2022/10/13 10:54:19;;;;;;;19.27;9.68;;;15.50;99.90;;;;;;5050827;28;20033;-78
2022/10/13 10:56:54;;;;;;;16.75;9.13;;;15.60;99.90;;;;;;5064975;28;20032;-80
2022/10/13 10:59:31;;;;;;;17.23;8.95;;;15.50;99.90;;;;;;5048012;28;20033;-79
2022/10/13 11:02:05;;;;;;;17.45;9.18;;;15.60;99.90;;;;;;5062098;28;20041;-79
2022/10/13 11:04:37;;;;;;;15.02;8.57;;;15.60;99.90;;;;;;5048514;28;20041;-78
2022/10/13 11:07:04;;;;;;;17.02;9.27;;;15.60;99.90;;;;;;5048376;28;20079;-79
2022/10/13 11:09:41;;;;;;;17.15;8.82;;;15.60;99.90;;;;;;5050364;28;20492;-79
2022/10/13 11:12:19;;;;;;;18.23;7.75;;;15.60;99.90;;;;;;5048997;28;20037;-78
2022/10/13 11:14:51;;;;;;;18.90;9.02;;;15.70;99.90;;;;;;5048984;28;20025;-79
2022/10/13 11:17:39;;;;;;;14.20;7.82;;;15.70;99.90;;;;;;5046592;28;20549;-78
2022/10/13 11:20:20;;;;;;;15.40;8.43;;;15.70;99.90;;;;;;5046508;28;20462;-78
2022/10/13 11:22:58;;;;;;;14.75;8.52;;;15.80;99.90;;;;;;5049729;28;20025;-78
2022/10/13 11:25:36;;;;;;;18.45;9.27;;;15.80;99.90;;;;;;5060188;28;20021;-79
2022/10/13 11:28:20;;;;;;;21.88;9.70;;;15.80;99.90;;;;;;5050206;28;20049;-79
2022/10/13 11:30:56;;;;;;;;;;;15.90;99.90;;;;;;5053280;28;20025;-79
2022/10/13 11:33:39;;;;;;;12.13;7.38;;;15.90;99.90;;;;;;5047577;28;19915;-79
2022/10/13 11:36:30;;;;;;;23.08;8.82;;;15.90;99.90;;;;;;5051507;28;21327;-79
2022/10/13 11:39:29;;;;;;;13.50;9.05;;;16.00;99.90;;;;;;5052234;28;20024;-78
2022/10/13 11:42:10;;;;;;;15.45;9.38;;;16.00;99.90;;;;;;5049190;28;20027;-79
2022/10/13 11:44:58;;;;;;;17.45;7.88;;;16.10;99.90;;;;;;5053972;28;20182;-79
2022/10/13 11:47:35;;;;;;;13.40;9.13;;;16.10;99.90;;;;;;5055671;28;20141;-78
2022/10/13 11:50:37;;;;;;;18.77;9.57;;;16.10;99.90;;;;;;5049709;28;20393;-78
2022/10/13 11:53:26;;;;;;;17.80;8.90;;;16.20;99.90;;;;;;5050822;28;20021;-78
2022/10/13 11:55:57;;;;;;;16.45;8.88;;;16.30;99.90;;;;;;5052551;28;20025;-78
2022/10/13 11:58:25;;;;;;;16.25;8.13;;;16.30;99.90;;;;;;5053685;28;20021;-78
2022/10/13 12:01:02;;;;;;;17.38;8.02;;;16.30;99.90;;;;;;5051746;28;20068;-78
2022/10/13 12:03:43;;;;;;;16.17;8.18;;;16.40;99.90;;;;;;5052118;28;20105;-79
2022/10/13 12:06:15;;;;;;;17.67;8.25;;;16.30;99.90;;;;;;5053391;28;20029;-79
2022/10/13 12:08:46;;;;;;;20.08;7.95;;;16.40;99.90;;;;;;5051839;28;20033;-78
2022/10/13 12:11:24;;;;;;;13.23;7.60;;;16.40;99.90;;;;;;5058711;28;20184;-78
2022/10/13 12:13:57;;;;;;;15.05;7.22;;;16.40;99.90;;;;;;5055972;28;20029;-79
2022/10/13 12:16:23;;;;;;;18.08;7.38;;;16.40;99.90;;;;;;5056223;28;20032;-78
2022/10/13 12:18:50;;;;;;;13.80;7.53;;;16.40;99.90;;;;;;5048973;28;20111;-77
2022/10/13 12:21:21;;;;;;;11.88;6.72;;;16.40;99.90;;;;;;5053232;28;20444;-78
2022/10/13 12:23:49;;;;;;;14.02;7.07;;;16.50;99.90;;;;;;5043907;28;20072;-78
2022/10/13 12:26:25;;;;;;;12.45;6.93;;;16.60;99.90;;;;;;5051752;28;20025;-78
2022/10/13 12:28:56;;;;;;;14.10;6.68;;;16.60;99.90;;;;;;5050500;28;20055;-78
2022/10/13 12:31:25;;;;;;;14.10;7.25;;;16.70;99.90;;;;;;5054591;28;20112;-78
2022/10/13 12:33:55;;;;;;;14.23;7.20;;;16.70;99.90;;;;;;5045738;28;20083;-78
2022/10/13 12:36:29;;;;;;;10.52;6.75;;;16.80;99.90;;;;;;5051754;28;20029;-78
2022/10/13 12:38:58;;;;;;;16.13;6.63;;;16.80;99.90;;;;;;5044327;28;20052;-78
2022/10/13 12:41:31;;;;;;;13.02;5.63;;;16.90;99.90;;;;;;5043746;28;20033;-78
2022/10/13 12:43:57;;;;;;;16.92;7.20;;;16.90;99.90;;;;;;5059512;28;20030;-78
2022/10/13 12:46:57;;;;;;;15.35;7.55;;;17.00;99.90;;;;;;5040631;28;20025;-78
2022/10/13 12:49:28;;;;;;;9.35;6.47;;;17.10;99.90;;;;;;5008740;28;20061;-78
2022/10/13 12:52:03;;;;;;;13.15;7.45;;;17.10;99.90;;;;;;5041951;28;20028;-78
2022/10/13 12:54:34;;;;;;;19.67;7.07;;;17.10;99.90;;;;;;5049227;28;20036;-78
2022/10/13 12:57:03;;;;;;;15.45;7.10;;;17.10;99.90;;;;;;5045151;28;20025;-78
2022/10/13 12:59:30;;;;;;;13.23;7.05;;;17.20;99.90;;;;;;5050370;28;20481;-78
2022/10/13 13:02:01;;;;;;;11.32;6.45;;;17.20;99.90;;;;;;5044663;28;20493;-77
2022/10/13 13:04:35;;;;;;;16.30;6.22;;;17.20;99.90;;;;;;5045116;28;20631;-78